Time;durP1;ratioP1;P1;durP2;ratioP2;P2;SDS_P1;SDS_P2;PMS_P1;PMS_P2;Temp;Humidity;BMP_temperature;BMP_pressure;BME280_temperature;BME280_humidity;BME280_pressure;Samples;Min_cycle;Max_cycle;Signal;HPM_P1;HPM_P2
2021/07/07 00:00:23;;;;;;;3.03;1.15;;;14.30;90.10;;;;;;5110973;28;20028;-86
2021/07/07 00:02:49;;;;;;;5.78;1.40;;;14.30;90.20;;;;;;5109938;28;20059;-81
2021/07/07 00:05:18;;;;;;;5.03;0.80;;;14.20;90.20;;;;;;5110052;28;20460;-84
2021/07/07 00:07:44;;;;;;;3.50;1.25;;;14.20;90.20;;;;;;5093614;28;20027;-83
2021/07/07 00:10:13;;;;;;;3.75;1.33;;;14.20;90.20;;;;;;5110074;28;20028;-84
2021/07/07 00:12:39;;;;;;;3.15;1.23;;;14.20;90.20;;;;;;5110672;28;20038;-83
2021/07/07 00:15:09;;;;;;;5.18;1.35;;;14.10;90.20;;;;;;5111732;28;20078;-85
2021/07/07 00:17:35;;;;;;;5.68;1.92;;;14.10;90.30;;;;;;5112591;28;20032;-86
2021/07/07 00:20:01;;;;;;;5.38;1.80;;;14.10;90.40;;;;;;5109853;28;20374;-87
2021/07/07 00:22:27;;;;;;;3.70;1.35;;;14.10;90.50;;;;;;5112752;28;20032;-87
2021/07/07 00:24:52;;;;;;;7.68;2.08;;;14.10;90.50;;;;;;5110006;28;20076;-82
2021/07/07 00:27:18;;;;;;;2.63;1.40;;;14.10;90.60;;;;;;5093524;28;20061;-85
2021/07/07 00:29:44;;;;;;;5.80;2.80;;;14.10;90.40;;;;;;5094217;28;20053;-85
2021/07/07 00:32:10;;;;;;;4.90;1.70;;;14.10;90.40;;;;;;5092852;28;20032;-86
2021/07/07 00:34:36;;;;;;;3.85;2.25;;;14.20;90.40;;;;;;5110428;28;20027;-85
2021/07/07 00:37:02;;;;;;;5.63;2.80;;;14.20;90.40;;;;;;5092690;28;20127;-83
2021/07/07 00:39:28;;;;;;;4.85;2.75;;;14.20;90.40;;;;;;5093691;28;20038;-85
2021/07/07 00:41:53;;;;;;;10.57;4.30;;;14.20;90.40;;;;;;5093183;28;20024;-83
2021/07/07 00:44:19;;;;;;;9.18;3.13;;;14.20;90.40;;;;;;5110145;28;20023;-85
2021/07/07 00:46:46;;;;;;;7.20;3.78;;;14.20;90.40;;;;;;5093442;28;20111;-85
2021/07/07 00:49:13;;;;;;;8.75;4.05;;;14.10;90.40;;;;;;5092970;28;20119;-86
2021/07/07 00:51:40;;;;;;;7.80;4.20;;;14.10;90.50;;;;;;5093609;28;20387;-87
2021/07/07 00:54:06;;;;;;;8.75;3.75;;;14.10;90.50;;;;;;5109941;28;20054;-86
2021/07/07 00:56:35;;;;;;;7.07;3.75;;;14.10;90.50;;;;;;5110828;28;20035;-86
2021/07/07 00:59:02;;;;;;;6.95;3.83;;;14.10;90.60;;;;;;5108639;28;20028;-86
2021/07/07 01:01:29;;;;;;;7.85;3.97;;;14.00;90.60;;;;;;5110324;28;20024;-85
2021/07/07 01:03:55;;;;;;;9.23;3.92;;;14.00;90.60;;;;;;5110254;28;20050;-83
2021/07/07 01:06:20;;;;;;;9.23;4.55;;;14.00;90.60;;;;;;5093067;28;20426;-85
2021/07/07 01:08:46;;;;;;;8.82;4.32;;;14.00;90.60;;;;;;5093484;28;20035;-85
2021/07/07 01:11:12;;;;;;;8.93;3.97;;;14.00;90.70;;;;;;5092066;28;20057;-84
2021/07/07 01:13:41;;;;;;;8.65;4.35;;;13.90;90.70;;;;;;5093100;28;20077;-84
2021/07/07 01:16:07;;;;;;;8.85;5.10;;;14.00;90.70;;;;;;5092478;28;20368;-84
2021/07/07 01:18:34;;;;;;;9.73;4.38;;;14.00;90.70;;;;;;5112946;28;20016;-84
2021/07/07 01:21:00;;;;;;;11.10;5.18;;;14.00;90.70;;;;;;5098813;28;20032;-81
2021/07/07 01:23:26;;;;;;;7.13;4.38;;;14.00;90.70;;;;;;5119560;28;20332;-83
2021/07/07 01:25:52;;;;;;;9.15;3.88;;;14.00;90.70;;;;;;5120562;28;20046;-84
2021/07/07 01:28:18;;;;;;;7.75;3.95;;;14.00;90.70;;;;;;5122466;28;20032;-85
2021/07/07 01:30:44;;;;;;;7.57;3.40;;;14.00;90.70;;;;;;5090865;28;20087;-85
2021/07/07 01:33:10;;;;;;;7.40;4.00;;;14.00;90.70;;;;;;5125624;28;20360;-84
2021/07/07 01:35:36;;;;;;;9.38;3.00;;;13.90;90.70;;;;;;5128373;28;20062;-83
2021/07/07 01:38:02;;;;;;;5.05;2.88;;;13.90;90.70;;;;;;5126265;28;20032;-81
2021/07/07 01:40:30;;;;;;;6.47;3.45;;;13.90;90.80;;;;;;5113645;28;20051;-83
2021/07/07 01:42:56;;;;;;;6.18;3.67;;;13.90;90.80;;;;;;5135285;28;20031;-86
2021/07/07 01:45:23;;;;;;;12.75;3.10;;;13.90;90.80;;;;;;5117216;28;20045;-84
2021/07/07 01:47:50;;;;;;;7.13;3.33;;;13.90;90.80;;;;;;5133345;28;20019;-84
2021/07/07 01:50:16;;;;;;;7.55;3.65;;;13.90;90.80;;;;;;5125064;28;20007;-85
2021/07/07 01:52:43;;;;;;;10.30;3.85;;;13.90;90.80;;;;;;5128710;28;20031;-86
2021/07/07 01:55:11;;;;;;;7.13;2.92;;;13.80;90.70;;;;;;5129211;28;20026;-83
2021/07/07 01:57:43;;;;;;;8.23;2.90;;;13.80;90.70;;;;;;5114831;28;20038;-83
2021/07/07 02:00:12;;;;;;;8.85;3.40;;;13.80;90.70;;;;;;5132119;28;20439;-86
2021/07/07 02:02:38;;;;;;;6.22;3.33;;;13.80;90.60;;;;;;5117154;28;20032;-85
2021/07/07 02:05:05;;;;;;;6.70;3.00;;;13.80;90.60;;;;;;5115774;28;20375;-82
2021/07/07 02:07:31;;;;;;;8.45;3.25;;;13.80;90.60;;;;;;5121644;27;20039;-83
2021/07/07 02:09:57;;;;;;;7.95;3.95;;;13.80;90.60;;;;;;5107886;28;20024;-83
2021/07/07 02:12:22;;;;;;;6.28;3.47;;;13.80;90.60;;;;;;5104248;28;20058;-82
2021/07/07 02:14:48;;;;;;;9.43;4.20;;;13.80;90.60;;;;;;5089375;28;20089;-85
2021/07/07 02:17:14;;;;;;;7.90;3.58;;;13.80;90.50;;;;;;5117570;28;20023;-84
2021/07/07 02:19:40;;;;;;;6.90;3.65;;;13.80;90.50;;;;;;5117658;28;20012;-86
2021/07/07 02:22:05;;;;;;;11.68;4.00;;;13.80;90.50;;;;;;5087948;28;20467;-86
2021/07/07 02:24:31;;;;;;;10.10;3.38;;;13.80;90.40;;;;;;5080635;28;20479;-85
2021/07/07 02:26:57;;;;;;;9.73;3.60;;;13.80;90.40;;;;;;5115164;28;20589;-85
2021/07/07 02:29:22;;;;;;;6.60;3.22;;;13.80;90.40;;;;;;5099670;28;20024;-85
2021/07/07 02:31:48;;;;;;;6.88;3.05;;;13.80;90.40;;;;;;5122882;28;20471;-86
2021/07/07 02:34:14;;;;;;;7.03;3.05;;;13.80;90.30;;;;;;5133106;28;20019;-84
2021/07/07 02:36:39;;;;;;;7.82;2.90;;;13.70;90.30;;;;;;5100726;28;20091;-85
2021/07/07 02:39:05;;;;;;;9.50;3.13;;;13.70;90.30;;;;;;5113456;28;20408;-87
2021/07/07 02:41:31;;;;;;;9.30;3.25;;;13.70;90.30;;;;;;5096485;28;20031;-87
2021/07/07 02:43:57;;;;;;;11.63;3.70;;;13.70;90.20;;;;;;5113536;28;20205;-85
2021/07/07 02:46:23;;;;;;;8.57;2.95;;;13.70;90.20;;;;;;5093951;28;20051;-85
2021/07/07 02:48:48;;;;;;;7.95;3.13;;;13.80;90.30;;;;;;5078063;28;20110;-85
2021/07/07 02:51:14;;;;;;;6.53;2.72;;;13.80;90.20;;;;;;5110813;28;20131;-83
2021/07/07 02:53:40;;;;;;;8.27;2.83;;;13.80;90.20;;;;;;5094718;28;20039;-85
2021/07/07 02:56:05;;;;;;;10.73;2.72;;;13.80;90.10;;;;;;5094109;28;20384;-86
2021/07/07 02:58:31;;;;;;;8.98;2.85;;;13.80;90.00;;;;;;5093895;28;20295;-86
2021/07/07 03:00:57;;;;;;;7.32;2.60;;;13.80;90.00;;;;;;5094297;28;20036;-86
2021/07/07 03:03:26;;;;;;;11.15;2.60;;;13.80;90.00;;;;;;5093404;28;20036;-85
2021/07/07 03:05:54;;;;;;;6.90;2.38;;;13.80;89.90;;;;;;5111113;28;20020;-87
2021/07/07 03:08:21;;;;;;;10.73;3.10;;;13.80;89.80;;;;;;5092478;28;20031;-86
2021/07/07 03:10:49;;;;;;;11.40;2.97;;;13.80;89.70;;;;;;5110572;28;20027;-85
2021/07/07 03:13:16;;;;;;;7.43;2.50;;;13.80;89.70;;;;;;5110712;28;20036;-82
2021/07/07 03:15:42;;;;;;;7.00;2.50;;;13.80;89.80;;;;;;5110847;28;20027;-85
2021/07/07 03:18:09;;;;;;;10.23;2.13;;;13.80;89.80;;;;;;5113545;28;20032;-85
2021/07/07 03:20:37;;;;;;;7.43;1.92;;;13.70;89.80;;;;;;5111220;28;20052;-84
2021/07/07 03:23:04;;;;;;;3.90;1.80;;;13.70;89.80;;;;;;5078380;28;20047;-85
2021/07/07 03:25:30;;;;;;;7.05;2.25;;;13.70;89.80;;;;;;5094417;28;20030;-86
2021/07/07 03:27:56;;;;;;;8.60;2.17;;;13.70;89.80;;;;;;5112597;28;20027;-85
2021/07/07 03:30:25;;;;;;;6.78;2.42;;;13.80;89.90;;;;;;5095193;28;20047;-85
2021/07/07 03:32:50;;;;;;;10.50;2.28;;;13.80;89.80;;;;;;5094880;28;20039;-82
2021/07/07 03:35:16;;;;;;;7.40;2.25;;;13.80;89.90;;;;;;5123126;28;20507;-84
2021/07/07 03:37:42;;;;;;;11.27;2.10;;;13.80;89.70;;;;;;5096573;28;20028;-85
2021/07/07 03:40:08;;;;;;;9.45;2.00;;;13.80;89.70;;;;;;5096743;28;20416;-86
2021/07/07 03:42:34;;;;;;;4.78;1.63;;;13.80;89.70;;;;;;5095469;28;20038;-87
2021/07/07 03:44:59;;;;;;;4.72;1.90;;;13.80;89.60;;;;;;5096434;28;20023;-86
2021/07/07 03:47:26;;;;;;;4.82;2.00;;;13.80;89.70;;;;;;5097614;28;20130;-87
2021/07/07 03:49:52;;;;;;;4.60;1.70;;;13.80;89.60;;;;;;5116623;28;20042;-87
2021/07/07 03:52:17;;;;;;;4.20;1.92;;;13.80;89.50;;;;;;5115422;28;20122;-85
2021/07/07 03:54:43;;;;;;;6.22;1.98;;;13.90;89.40;;;;;;5116717;28;20047;-86
2021/07/07 03:57:09;;;;;;;6.68;1.95;;;13.90;89.30;;;;;;5126820;28;20046;-86
2021/07/07 03:59:35;;;;;;;5.72;1.88;;;14.00;89.10;;;;;;5124416;28;20028;-86
2021/07/07 04:02:00;;;;;;;9.77;2.15;;;14.10;89.00;;;;;;5121194;28;20531;-87
2021/07/07 04:04:26;;;;;;;9.50;2.15;;;14.20;88.70;;;;;;5113096;28;20118;-85
2021/07/07 04:06:57;;;;;;;8.05;2.45;;;14.30;88.30;;;;;;5112013;28;20027;-86
2021/07/07 04:09:23;;;;;;;6.13;2.30;;;14.40;88.10;;;;;;5095973;28;20031;-82
2021/07/07 04:11:49;;;;;;;11.55;2.55;;;14.50;87.80;;;;;;5093813;28;20055;-87
2021/07/07 04:14:22;;;;;;;11.93;2.40;;;14.70;87.50;;;;;;5094504;28;20062;-85
2021/07/07 04:16:48;;;;;;;9.68;2.33;;;14.80;87.00;;;;;;5110366;28;20084;-84
2021/07/07 04:19:14;;;;;;;7.47;2.47;;;15.00;86.40;;;;;;5093939;28;20460;-84
2021/07/07 04:21:39;;;;;;;9.32;2.50;;;15.10;86.10;;;;;;5109999;28;20031;-84
2021/07/07 04:24:05;;;;;;;8.40;2.28;;;15.20;85.80;;;;;;5076543;28;20055;-84
2021/07/07 04:26:30;;;;;;;6.57;1.80;;;15.20;85.40;;;;;;5092565;28;20123;-84
2021/07/07 04:28:56;;;;;;;8.32;1.98;;;15.30;85.40;;;;;;5093278;28;20032;-85
2021/07/07 04:31:23;;;;;;;12.30;2.15;;;15.20;85.30;;;;;;5093150;28;20028;-84
2021/07/07 04:33:49;;;;;;;8.55;1.80;;;15.20;85.30;;;;;;5109527;28;20656;-85
2021/07/07 04:36:15;;;;;;;11.60;2.28;;;15.20;85.40;;;;;;5093390;28;20126;-85
2021/07/07 04:38:40;;;;;;;4.28;1.40;;;15.20;85.50;;;;;;5109410;28;20471;-85
2021/07/07 04:41:06;;;;;;;6.82;1.50;;;15.20;85.70;;;;;;5109835;28;20047;-86
2021/07/07 04:43:32;;;;;;;6.75;1.80;;;15.10;85.80;;;;;;5109284;28;20541;-84
2021/07/07 04:45:58;;;;;;;7.45;1.70;;;15.20;85.80;;;;;;5109744;28;20038;-84
2021/07/07 04:48:23;;;;;;;11.57;2.03;;;15.20;85.80;;;;;;5111718;28;20470;-86
2021/07/07 04:50:49;;;;;;;8.00;2.13;;;15.20;85.90;;;;;;5110079;28;20616;-85
2021/07/07 04:53:14;;;;;;;7.30;1.98;;;15.20;85.90;;;;;;5113958;28;20495;-85
2021/07/07 04:55:40;;;;;;;8.73;2.35;;;15.20;85.90;;;;;;5096532;28;20531;-85
2021/07/07 04:58:08;;;;;;;8.48;2.13;;;15.30;85.90;;;;;;5114901;28;20095;-85
2021/07/07 05:00:33;;;;;;;10.63;2.25;;;15.30;86.00;;;;;;5114345;28;20177;-83
2021/07/07 05:02:59;;;;;;;9.32;2.22;;;15.30;86.00;;;;;;5114224;28;20465;-85
2021/07/07 05:05:25;;;;;;;8.52;2.30;;;15.40;86.00;;;;;;5114506;28;20134;-86
2021/07/07 05:07:51;;;;;;;8.80;2.15;;;15.40;86.00;;;;;;5112891;28;20164;-84
2021/07/07 05:10:17;;;;;;;7.32;2.22;;;15.50;86.00;;;;;;5113878;28;20108;-87
2021/07/07 05:12:44;;;;;;;8.25;2.35;;;15.50;85.80;;;;;;5114120;28;20046;-85
2021/07/07 05:15:12;;;;;;;9.73;2.17;;;15.60;85.80;;;;;;5097474;28;20028;-88
2021/07/07 05:17:38;;;;;;;12.00;2.15;;;15.70;85.70;;;;;;5113663;28;20089;-86
2021/07/07 05:20:05;;;;;;;9.90;1.90;;;15.70;85.60;;;;;;5113848;28;20039;-87
2021/07/07 05:22:31;;;;;;;9.13;1.92;;;15.80;85.50;;;;;;5114249;28;20032;-86
2021/07/07 05:24:57;;;;;;;6.10;1.90;;;15.80;85.30;;;;;;5114075;28;20434;-87
2021/07/07 05:27:23;;;;;;;7.70;2.40;;;15.90;85.10;;;;;;5098459;28;20034;-87
2021/07/07 05:29:48;;;;;;;12.98;3.22;;;15.90;85.00;;;;;;5114741;28;20030;-86
2021/07/07 05:32:21;;;;;;;13.20;2.88;;;16.00;85.10;;;;;;5097983;28;20027;-87
2021/07/07 05:34:52;;;;;;;6.38;2.33;;;16.00;85.00;;;;;;5114041;28;20024;-87
2021/07/07 05:37:22;;;;;;;9.80;2.83;;;16.20;85.00;;;;;;5116423;28;20015;-88
2021/07/07 05:39:49;;;;;;;8.25;2.50;;;16.30;84.50;;;;;;5096952;28;20118;-87
2021/07/07 05:42:17;;;;;;;8.35;2.50;;;16.50;84.10;;;;;;5098618;28;20040;-86
2021/07/07 05:44:43;;;;;;;6.80;2.63;;;17.00;83.80;;;;;;5114263;28;20026;-89
2021/07/07 05:47:09;;;;;;;10.63;2.90;;;17.30;83.00;;;;;;5097647;28;20047;-89
2021/07/07 05:49:35;;;;;;;9.32;2.65;;;17.60;82.30;;;;;;5116935;28;20043;-89
2021/07/07 05:52:01;;;;;;;5.10;1.70;;;17.60;81.10;;;;;;5114938;28;20023;-86
2021/07/07 05:54:26;;;;;;;10.50;2.00;;;17.60;80.90;;;;;;5116927;28;20485;-86
2021/07/07 05:56:52;;;;;;;9.13;2.47;;;17.60;80.40;;;;;;5097493;28;20102;-87
2021/07/07 05:59:18;;;;;;;7.75;2.08;;;17.50;80.50;;;;;;5115118;28;20475;-89
2021/07/07 06:01:43;;;;;;;8.55;2.03;;;17.50;80.60;;;;;;5097396;28;20391;-85
2021/07/07 06:04:09;;;;;;;10.68;1.80;;;17.60;80.70;;;;;;5096839;28;20394;-87
2021/07/07 06:06:34;;;;;;;9.50;2.03;;;17.80;80.30;;;;;;5080169;28;20024;-89
2021/07/07 06:09:00;;;;;;;7.95;2.00;;;18.80;79.30;;;;;;5097433;28;20715;-86
2021/07/07 06:11:27;;;;;;;6.68;1.35;;;20.70;73.80;;;;;;5080697;28;20053;-88
2021/07/07 06:13:53;;;;;;;7.30;1.35;;;22.30;70.00;;;;;;5113352;28;20475;-87
2021/07/07 06:16:19;;;;;;;6.60;1.27;;;23.50;65.40;;;;;;5080108;28;20130;-87
2021/07/07 06:18:44;;;;;;;6.50;1.00;;;24.60;62.90;;;;;;5097636;28;20054;-83
2021/07/07 06:21:10;;;;;;;6.22;1.20;;;25.50;60.70;;;;;;5097467;28;20119;-88
2021/07/07 06:23:36;;;;;;;6.10;1.10;;;26.10;57.10;;;;;;5097213;28;20039;-88
2021/07/07 06:26:01;;;;;;;3.88;0.75;;;26.30;56.70;;;;;;5079543;28;20028;-88
2021/07/07 06:28:27;;;;;;;5.43;1.05;;;27.00;56.00;;;;;;5116289;28;20114;-90
2021/07/07 06:30:53;;;;;;;7.22;0.90;;;27.40;52.70;;;;;;5113651;28;20035;-88
2021/07/07 06:33:19;;;;;;;6.35;0.90;;;27.40;53.30;;;;;;5096155;28;20554;-89
2021/07/07 06:35:44;;;;;;;6.93;1.00;;;27.30;53.30;;;;;;5096455;28;20535;-88
2021/07/07 06:38:11;;;;;;;4.10;0.70;;;27.30;52.20;;;;;;5079294;28;20104;-86
2021/07/07 06:40:37;;;;;;;5.47;0.88;;;27.70;52.50;;;;;;5115601;28;20032;-89
2021/07/07 06:43:03;;;;;;;2.80;0.73;;;27.90;51.40;;;;;;5113535;28;20127;-89
2021/07/07 06:45:30;;;;;;;4.43;0.60;;;28.10;51.60;;;;;;5097073;28;20025;-87
2021/07/07 06:47:56;;;;;;;6.45;0.88;;;28.40;50.10;;;;;;5112129;28;20051;-88
2021/07/07 06:50:22;;;;;;;3.17;0.60;;;28.70;49.40;;;;;;5114183;28;20544;-87
2021/07/07 06:52:48;;;;;;;5.38;0.75;;;29.10;49.40;;;;;;5112661;28;20403;-87
2021/07/07 06:55:14;;;;;;;6.35;0.80;;;29.30;47.20;;;;;;5113861;28;20059;-88
2021/07/07 06:57:40;;;;;;;3.92;0.88;;;29.00;48.10;;;;;;5113960;28;20055;-87
2021/07/07 07:00:12;;;;;;;7.22;0.98;;;29.00;49.10;;;;;;5077842;28;20058;-88
2021/07/07 07:02:38;;;;;;;4.10;0.88;;;29.30;47.20;;;;;;5112092;28;20035;-88
2021/07/07 07:05:05;;;;;;;5.25;0.60;;;29.20;46.20;;;;;;5111613;28;20080;-87
2021/07/07 07:07:31;;;;;;;3.15;0.70;;;29.10;48.60;;;;;;5112140;28;20062;-87
2021/07/07 07:09:59;;;;;;;5.82;0.70;;;29.60;48.30;;;;;;5112896;28;20069;-87
2021/07/07 07:12:26;;;;;;;3.58;0.60;;;30.20;47.30;;;;;;5112496;28;20398;-87
2021/07/07 07:14:53;;;;;;;6.10;0.82;;;30.60;46.50;;;;;;5113232;28;20031;-83
2021/07/07 07:17:23;;;;;;;5.55;0.63;;;30.90;45.00;;;;;;5113275;28;20027;-86
2021/07/07 07:19:49;;;;;;;2.97;0.57;;;31.10;45.00;;;;;;5112439;28;20034;-88
2021/07/07 07:22:16;;;;;;;4.40;0.70;;;31.20;43.80;;;;;;5112431;28;20031;-86
2021/07/07 07:24:43;;;;;;;5.55;0.60;;;31.40;44.20;;;;;;5112605;28;20091;-90
2021/07/07 07:27:08;;;;;;;4.78;0.80;;;31.50;43.70;;;;;;5111428;28;20029;-87
2021/07/07 07:29:37;;;;;;;3.67;0.65;;;31.80;43.20;;;;;;5112062;28;20016;-86
2021/07/07 07:32:04;;;;;;;5.35;0.70;;;31.90;43.10;;;;;;5111478;28;20032;-87
2021/07/07 07:34:29;;;;;;;4.10;0.70;;;32.10;42.70;;;;;;5112498;28;20402;-87
2021/07/07 07:37:01;;;;;;;3.08;0.50;;;31.80;42.10;;;;;;5113167;28;20035;-84
2021/07/07 07:39:28;;;;;;;3.72;0.70;;;31.80;42.70;;;;;;5099001;28;20034;-86
2021/07/07 07:41:56;;;;;;;4.72;0.73;;;31.70;43.00;;;;;;5097651;28;20027;-85
2021/07/07 07:44:23;;;;;;;2.63;0.50;;;31.80;43.00;;;;;;5113873;28;20047;-87
2021/07/07 07:46:49;;;;;;;3.10;0.65;;;32.00;42.60;;;;;;5114512;28;20120;-87
2021/07/07 07:49:15;;;;;;;4.03;0.60;;;32.30;41.60;;;;;;5097365;28;20384;-87
2021/07/07 07:51:41;;;;;;;4.28;0.60;;;32.30;41.60;;;;;;5094949;28;20035;-87
2021/07/07 07:54:07;;;;;;;4.05;0.60;;;32.10;42.10;;;;;;5094014;28;20122;-87
2021/07/07 07:56:32;;;;;;;3.83;0.60;;;32.10;41.70;;;;;;5094875;28;20118;-88
2021/07/07 07:58:58;;;;;;;3.90;0.50;;;32.10;40.80;;;;;;5110950;28;20360;-85
2021/07/07 08:01:25;;;;;;;6.72;0.63;;;32.00;42.10;;;;;;5093680;28;20020;-87
2021/07/07 08:03:51;;;;;;;4.50;0.70;;;32.20;41.60;;;;;;5110730;28;20502;-86
2021/07/07 08:06:16;;;;;;;3.33;0.50;;;32.10;40.70;;;;;;5093503;28;20023;-86
2021/07/07 08:08:42;;;;;;;5.60;0.60;;;31.80;40.90;;;;;;5078208;28;20016;-87
2021/07/07 08:11:08;;;;;;;6.15;0.88;;;31.80;42.30;;;;;;5111031;28;20036;-86
2021/07/07 08:13:34;;;;;;;4.07;0.68;;;31.80;40.50;;;;;;5113879;28;20050;-88
2021/07/07 08:16:00;;;;;;;3.47;0.50;;;31.00;42.20;;;;;;5115005;28;20478;-86
2021/07/07 08:18:26;;;;;;;4.50;0.90;;;30.90;42.70;;;;;;5094232;28;20024;-85
2021/07/07 08:20:51;;;;;;;6.85;0.85;;;30.70;41.20;;;;;;5116995;28;20425;-82
2021/07/07 08:23:17;;;;;;;5.32;0.70;;;30.10;42.40;;;;;;5117130;28;20035;-87
2021/07/07 08:25:43;;;;;;;3.00;0.50;;;29.40;43.70;;;;;;5104024;28;20031;-88
2021/07/07 08:28:09;;;;;;;6.53;0.70;;;29.30;45.20;;;;;;5108417;28;20032;-88
2021/07/07 08:30:34;;;;;;;5.38;0.68;;;29.40;44.50;;;;;;5109174;28;20051;-84
2021/07/07 08:33:00;;;;;;;4.03;0.68;;;29.80;43.70;;;;;;5123544;28;20036;-88
2021/07/07 08:35:25;;;;;;;4.38;0.70;;;30.30;44.40;;;;;;5123510;28;20467;-89
2021/07/07 08:37:51;;;;;;;4.63;0.82;;;31.10;43.30;;;;;;5123150;28;20038;-89
2021/07/07 08:40:17;;;;;;;4.72;0.63;;;31.70;42.50;;;;;;5119733;28;20034;-84
2021/07/07 08:42:44;;;;;;;5.43;0.80;;;31.10;40.20;;;;;;5086269;28;20088;-85
2021/07/07 08:45:13;;;;;;;4.50;0.60;;;30.20;42.10;;;;;;5121708;28;20030;-86
2021/07/07 08:47:41;;;;;;;4.22;0.55;;;29.80;43.70;;;;;;5122599;28;20047;-86
2021/07/07 08:50:10;;;;;;;5.47;0.70;;;30.20;43.60;;;;;;5120810;28;20024;-86
2021/07/07 08:52:40;;;;;;;2.85;0.77;;;30.10;41.80;;;;;;5124298;28;20028;-88
2021/07/07 08:55:11;;;;;;;5.70;0.70;;;29.80;42.10;;;;;;5104555;28;20046;-84
2021/07/07 08:57:44;;;;;;;4.20;0.50;;;29.60;42.30;;;;;;5122772;28;20020;-90
2021/07/07 09:00:15;;;;;;;3.70;0.70;;;30.10;43.90;;;;;;5105631;28;20039;-87
2021/07/07 09:02:52;;;;;;;3.95;0.60;;;30.40;42.70;;;;;;5121289;28;20031;-90
2021/07/07 09:05:18;;;;;;;5.60;0.75;;;30.20;42.10;;;;;;5107947;28;20035;-90
2021/07/07 09:07:44;;;;;;;5.70;0.60;;;30.70;41.70;;;;;;5106514;28;20028;-85
2021/07/07 09:10:14;;;;;;;5.65;0.73;;;31.10;40.00;;;;;;5102349;28;20035;-88
2021/07/07 09:12:40;;;;;;;7.38;0.50;;;30.20;40.40;;;;;;5122370;27;20024;-90
2021/07/07 09:15:14;;;;;;;2.67;0.50;;;29.60;42.50;;;;;;5121678;28;20138;-88
2021/07/07 09:17:49;;;;;;;4.50;0.50;;;29.60;41.80;;;;;;5120645;28;20034;-91
2021/07/07 09:20:24;;;;;;;5.15;0.65;;;29.70;41.20;;;;;;5122365;28;20019;-91
2021/07/07 09:22:51;;;;;;;4.78;0.50;;;29.70;42.30;;;;;;5121198;28;20031;-90
2021/07/07 09:25:26;;;;;;;3.53;0.60;;;30.10;42.30;;;;;;5121883;28;20028;-90
2021/07/07 09:27:52;;;;;;;2.55;0.40;;;30.50;40.90;;;;;;5124489;28;20045;-89
2021/07/07 09:30:18;;;;;;;5.15;0.77;;;30.50;41.40;;;;;;5131177;28;20035;-88
2021/07/07 09:32:49;;;;;;;2.70;0.40;;;31.00;39.50;;;;;;5134926;28;20028;-88
2021/07/07 09:35:20;;;;;;;3.58;0.60;;;31.40;41.20;;;;;;5113745;28;20047;-89
2021/07/07 09:37:56;;;;;;;3.50;0.50;;;31.90;38.90;;;;;;5115437;28;20020;-88
2021/07/07 09:40:24;;;;;;;3.75;0.50;;;32.30;39.30;;;;;;5135578;28;20086;-90
2021/07/07 09:42:53;;;;;;;2.08;0.40;;;32.20;38.60;;;;;;5118850;28;20039;-90
2021/07/07 09:45:21;;;;;;;2.70;0.40;;;32.10;38.90;;;;;;5129990;28;20031;-91
2021/07/07 09:47:48;;;;;;;1.77;0.43;;;31.70;38.90;;;;;;5126131;28;20072;-88
2021/07/07 09:50:16;;;;;;;5.25;0.65;;;31.20;39.80;;;;;;5126252;28;20031;-88
2021/07/07 09:52:43;;;;;;;4.57;0.50;;;30.50;40.60;;;;;;5119642;28;20027;-91
2021/07/07 09:55:10;;;;;;;6.57;0.90;;;30.00;40.60;;;;;;5119948;28;20145;-92
2021/07/07 09:57:45;;;;;;;2.92;0.50;;;29.40;41.60;;;;;;5101155;28;20030;-91
2021/07/07 10:00:37;;;;;;;2.35;0.43;;;29.10;42.70;;;;;;5120231;28;20536;-91
2021/07/07 10:03:06;;;;;;;3.72;0.50;;;29.20;42.70;;;;;;5119017;28;20126;-90
2021/07/07 10:05:39;;;;;;;3.85;0.50;;;29.20;42.50;;;;;;5118618;28;20032;-92
2021/07/07 10:08:08;;;;;;;4.35;0.47;;;28.70;42.60;;;;;;5100588;28;20015;-89
2021/07/07 10:10:37;;;;;;;4.05;0.50;;;29.00;41.90;;;;;;5116804;28;20032;-90
2021/07/07 10:13:05;;;;;;;4.60;0.47;;;29.40;42.60;;;;;;5119039;28;20058;-89
2021/07/07 10:15:35;;;;;;;3.17;0.57;;;29.50;42.50;;;;;;5103081;28;20045;-89
2021/07/07 10:18:02;;;;;;;3.65;0.50;;;29.60;42.10;;;;;;5119850;28;20032;-91
2021/07/07 10:20:28;;;;;;;3.00;0.43;;;29.30;42.10;;;;;;5119137;28;20050;-90
2021/07/07 10:22:56;;;;;;;3.50;0.60;;;29.80;43.20;;;;;;5117943;28;20459;-90
2021/07/07 10:25:26;;;;;;;3.85;0.50;;;30.10;40.60;;;;;;5119964;28;20073;-88
2021/07/07 10:27:56;;;;;;;3.45;0.50;;;29.80;41.60;;;;;;5120485;28;20023;-89
2021/07/07 10:30:51;;;;;;;2.78;0.50;;;29.40;41.70;;;;;;5120671;28;20043;-87
2021/07/07 10:33:18;;;;;;;4.47;0.82;;;28.70;42.80;;;;;;5122484;28;20032;-90
2021/07/07 10:35:45;;;;;;;1.73;0.47;;;28.30;43.80;;;;;;5121640;28;20819;-89
2021/07/07 10:38:12;;;;;;;2.97;0.40;;;28.30;43.80;;;;;;5124153;28;20111;-91
2021/07/07 10:40:51;;;;;;;2.47;0.40;;;28.50;44.10;;;;;;5121432;28;20034;-89
2021/07/07 10:43:44;;;;;;;2.08;0.40;;;28.80;43.80;;;;;;5121761;28;20020;-87
2021/07/07 10:46:10;;;;;;;2.40;0.45;;;29.10;42.80;;;;;;5121123;28;20063;-89
2021/07/07 10:48:36;;;;;;;2.42;0.30;;;29.00;43.40;;;;;;5101009;28;20023;-86
2021/07/07 10:51:23;;;;;;;6.70;0.50;;;29.20;43.00;;;;;;5100945;28;20375;-90
2021/07/07 10:53:49;;;;;;;1.35;0.30;;;29.10;43.10;;;;;;5122603;27;20024;-88
2021/07/07 10:56:14;;;;;;;1.67;0.40;;;28.90;42.60;;;;;;5121128;28;20035;-87
2021/07/07 10:58:41;;;;;;;2.50;0.40;;;28.90;42.30;;;;;;5103190;28;20026;-89
2021/07/07 11:01:35;;;;;;;4.22;0.50;;;28.80;41.60;;;;;;5104610;28;20039;-89
2021/07/07 11:04:03;;;;;;;4.53;0.88;;;28.80;42.90;;;;;;5108258;28;20067;-91
2021/07/07 11:06:36;;;;;;;3.47;0.40;;;29.10;42.70;;;;;;5122583;28;20041;-89
2021/07/07 11:09:12;;;;;;;3.85;0.40;;;29.40;42.60;;;;;;5120670;28;20020;-91
2021/07/07 11:11:38;;;;;;;2.42;0.40;;;29.60;43.00;;;;;;5121476;28;20036;-90
2021/07/07 11:14:11;;;;;;;3.03;0.40;;;29.60;42.70;;;;;;5120471;28;20395;-91
2021/07/07 11:16:45;;;;;;;3.67;0.40;;;29.50;42.40;;;;;;5121215;28;20114;-83
2021/07/07 11:19:37;;;;;;;3.88;0.50;;;29.60;42.20;;;;;;5123704;28;20046;-92
2021/07/07 11:22:03;;;;;;;3.58;0.70;;;29.50;41.40;;;;;;5120729;28;20020;-91
2021/07/07 11:24:28;;;;;;;1.80;0.30;;;29.50;42.80;;;;;;5121174;28;20043;-89
2021/07/07 11:26:57;;;;;;;2.22;0.40;;;29.80;42.40;;;;;;5103797;28;20023;-89
2021/07/07 11:29:23;;;;;;;1.73;0.30;;;30.10;40.90;;;;;;5121063;28;20487;-88
2021/07/07 11:31:48;;;;;;;1.67;0.43;;;30.10;42.00;;;;;;5102125;28;20488;-90
2021/07/07 11:34:14;;;;;;;3.08;0.40;;;30.40;40.70;;;;;;5120879;28;20039;-87
2021/07/07 11:36:42;;;;;;;3.20;0.50;;;30.60;40.70;;;;;;5102643;28;20387;-88
2021/07/07 11:39:08;;;;;;;2.58;0.40;;;30.60;40.40;;;;;;5103419;28;20051;-88
2021/07/07 11:41:34;;;;;;;2.88;0.40;;;30.20;40.90;;;;;;5120869;28;20476;-86
2021/07/07 11:44:00;;;;;;;2.50;0.40;;;29.90;41.10;;;;;;5121305;28;20024;-88
2021/07/07 11:46:31;;;;;;;3.00;0.40;;;29.50;41.80;;;;;;5122953;28;20047;-89
2021/07/07 11:49:08;;;;;;;1.48;0.35;;;29.20;42.40;;;;;;5122335;28;20034;-89
2021/07/07 11:51:37;;;;;;;2.05;0.50;;;29.20;43.20;;;;;;5124524;28;20023;-89
2021/07/07 11:54:03;;;;;;;3.70;0.40;;;29.50;42.90;;;;;;5105706;28;20036;-88
2021/07/07 11:56:30;;;;;;;2.47;0.40;;;29.60;42.70;;;;;;5122412;28;20058;-90
2021/07/07 11:58:57;;;;;;;1.45;0.45;;;29.50;42.00;;;;;;5105615;28;20016;-89
2021/07/07 12:01:34;;;;;;;2.20;0.30;;;29.40;42.00;;;;;;5123683;28;20034;-91
2021/07/07 12:04:08;;;;;;;4.78;0.50;;;29.10;42.30;;;;;;5122161;28;20038;-82
2021/07/07 12:06:45;;;;;;;2.15;0.30;;;29.00;42.00;;;;;;5123434;28;20024;-89
2021/07/07 12:09:22;;;;;;;3.28;0.40;;;28.80;42.50;;;;;;5123298;28;20031;-88
2021/07/07 12:11:55;;;;;;;3.53;0.50;;;29.20;43.10;;;;;;5121240;28;20043;-88
2021/07/07 12:14:25;;;;;;;2.70;0.40;;;29.40;42.90;;;;;;5122386;28;20036;-89
2021/07/07 12:16:51;;;;;;;1.13;0.30;;;29.80;42.70;;;;;;5122781;28;20035;-90
2021/07/07 12:19:18;;;;;;;2.35;0.50;;;30.20;42.30;;;;;;5123977;28;20023;-91
2021/07/07 12:21:48;;;;;;;2.70;0.40;;;30.50;41.20;;;;;;5123451;28;20024;-89
2021/07/07 12:24:20;;;;;;;3.45;0.40;;;30.30;40.40;;;;;;5112234;28;20374;-90
2021/07/07 12:27:11;;;;;;;1.83;0.30;;;30.00;40.90;;;;;;5112143;28;20084;-87
2021/07/07 12:29:39;;;;;;;2.38;0.40;;;29.70;42.40;;;;;;5100711;28;20042;-91
2021/07/07 12:32:12;;;;;;;2.50;0.40;;;29.70;41.70;;;;;;5093349;28;20077;-88
2021/07/07 12:34:44;;;;;;;4.03;0.40;;;29.50;41.90;;;;;;5112728;28;20031;-88
2021/07/07 12:37:11;;;;;;;;;;;29.50;40.80;;;;;;5111708;28;20024;-90
2021/07/07 12:39:41;;;;;;;2.47;0.40;;;29.60;41.60;;;;;;5111489;28;19911;-87
2021/07/07 12:42:12;;;;;;;1.70;0.40;;;29.80;41.50;;;;;;5111734;28;20111;-88
2021/07/07 12:44:39;;;;;;;2.65;0.40;;;29.80;40.80;;;;;;5116609;28;20095;-89
2021/07/07 12:47:08;;;;;;;1.50;0.30;;;29.90;40.70;;;;;;5094419;28;20115;-90